Edgar G. Obie (S71)
Chinook, MT
Field Elevation: 2416
Lat: 48°35.32N  Long: 109°15.02W
CTAF/Unicom Freq: 122.8000
   
    
Weather Advisories
2020-07-08   21:29 Z
Altimeter 29.81" Hg
Wind 260° @ 17 KT
Gusts 25 KT
Visibility 10 SM
Temperature 17° C (63° F)
Dewpoint 11° C (52° F)
Relative Humidity 68%
Density Altitude --
Condensation Altitude 5,500 feet
Wind and Runways
Indicated Runway = 26
Headwind = 17 kt
Crosswind = 0 kt
History
 
 
 
More Info
NOAA Forecast
 
 
About Us
Belfort Instrument
 
 
FAA Disclaimer: The data displayed is for advisory purposes only and is not to be used for flight planning or operations. For official data, please call (not available) to hear the current automated AWOS voice message.
  METAR S71 082129Z AUTO 26017G25KT 10 SM 17/11 A2981